sensor_id;sensor_type;location;lat;lon;timestamp;P1;durP1;ratioP1;P2;durP2;ratioP2
68989;SDS011;56046;47.270;11.368;2022-08-19T00:01:14;6.77;;;3.27;;
68989;SDS011;56046;47.270;11.368;2022-08-19T00:03:40;7.23;;;3.33;;
68989;SDS011;56046;47.270;11.368;2022-08-19T00:06:05;7.50;;;3.20;;
68989;SDS011;56046;47.270;11.368;2022-08-19T00:08:30;5.77;;;3.10;;
68989;SDS011;56046;47.270;11.368;2022-08-19T00:10:56;5.22;;;3.28;;
68989;SDS011;56046;47.270;11.368;2022-08-19T00:13:22;5.27;;;2.80;;
68989;SDS011;56046;47.270;11.368;2022-08-19T00:15:47;6.20;;;3.17;;
68989;SDS011;56046;47.270;11.368;2022-08-19T00:18:12;6.53;;;3.47;;
68989;SDS011;56046;47.270;11.368;2022-08-19T00:20:37;5.32;;;2.78;;
68989;SDS011;56046;47.270;11.368;2022-08-19T00:23:05;6.83;;;3.23;;
68989;SDS011;56046;47.270;11.368;2022-08-19T00:25:30;5.17;;;3.20;;
68989;SDS011;56046;47.270;11.368;2022-08-19T00:27:55;5.63;;;3.03;;
68989;SDS011;56046;47.270;11.368;2022-08-19T00:30:20;6.50;;;3.10;;
68989;SDS011;56046;47.270;11.368;2022-08-19T00:32:46;5.97;;;3.33;;
68989;SDS011;56046;47.270;11.368;2022-08-19T00:35:11;5.77;;;3.30;;
68989;SDS011;56046;47.270;11.368;2022-08-19T00:37:37;6.27;;;3.20;;
68989;SDS011;56046;47.270;11.368;2022-08-19T00:40:04;7.15;;;3.50;;
68989;SDS011;56046;47.270;11.368;2022-08-19T00:42:29;5.95;;;3.03;;
68989;SDS011;56046;47.270;11.368;2022-08-19T00:44:55;6.77;;;3.53;;
68989;SDS011;56046;47.270;11.368;2022-08-19T00:47:20;6.43;;;3.47;;
68989;SDS011;56046;47.270;11.368;2022-08-19T00:49:47;7.27;;;3.70;;
68989;SDS011;56046;47.270;11.368;2022-08-19T00:52:29;7.03;;;3.40;;
68989;SDS011;56046;47.270;11.368;2022-08-19T00:54:56;7.10;;;3.13;;
68989;SDS011;56046;47.270;11.368;2022-08-19T00:57:23;6.50;;;3.28;;
68989;SDS011;56046;47.270;11.368;2022-08-19T00:59:52;6.65;;;3.40;;
68989;SDS011;56046;47.270;11.368;2022-08-19T01:02:19;5.38;;;2.78;;
68989;SDS011;56046;47.270;11.368;2022-08-19T01:04:45;5.07;;;2.87;;
68989;SDS011;56046;47.270;11.368;2022-08-19T01:07:10;8.10;;;3.67;;
68989;SDS011;56046;47.270;11.368;2022-08-19T01:09:35;6.83;;;3.50;;
68989;SDS011;56046;47.270;11.368;2022-08-19T01:12:00;5.70;;;2.93;;
68989;SDS011;56046;47.270;11.368;2022-08-19T01:14:26;5.75;;;3.17;;
68989;SDS011;56046;47.270;11.368;2022-08-19T01:16:51;6.60;;;3.10;;
68989;SDS011;56046;47.270;11.368;2022-08-19T01:19:26;5.70;;;3.17;;
68989;SDS011;56046;47.270;11.368;2022-08-19T01:21:55;6.72;;;3.00;;
68989;SDS011;56046;47.270;11.368;2022-08-19T01:24:22;5.07;;;3.13;;
68989;SDS011;56046;47.270;11.368;2022-08-19T01:26:48;6.03;;;3.40;;
68989;SDS011;56046;47.270;11.368;2022-08-19T01:29:13;6.55;;;3.05;;
68989;SDS011;56046;47.270;11.368;2022-08-19T01:31:39;6.97;;;3.27;;
68989;SDS011;56046;47.270;11.368;2022-08-19T01:34:04;5.73;;;3.00;;
68989;SDS011;56046;47.270;11.368;2022-08-19T01:36:31;8.65;;;3.50;;
68989;SDS011;56046;47.270;11.368;2022-08-19T01:38:58;7.32;;;3.17;;
68989;SDS011;56046;47.270;11.368;2022-08-19T01:41:24;5.95;;;3.35;;
68989;SDS011;56046;47.270;11.368;2022-08-19T01:43:50;7.03;;;3.37;;
68989;SDS011;56046;47.270;11.368;2022-08-19T01:46:16;7.07;;;3.30;;
68989;SDS011;56046;47.270;11.368;2022-08-19T01:48:42;6.93;;;3.10;;
68989;SDS011;56046;47.270;11.368;2022-08-19T01:51:08;6.88;;;3.15;;
68989;SDS011;56046;47.270;11.368;2022-08-19T01:53:33;5.83;;;3.30;;
68989;SDS011;56046;47.270;11.368;2022-08-19T01:55:59;7.72;;;2.95;;
68989;SDS011;56046;47.270;11.368;2022-08-19T01:58:27;6.63;;;2.37;;
68989;SDS011;56046;47.270;11.368;2022-08-19T02:00:55;6.30;;;2.65;;
68989;SDS011;56046;47.270;11.368;2022-08-19T02:03:20;7.00;;;3.13;;
68989;SDS011;56046;47.270;11.368;2022-08-19T02:05:46;7.33;;;3.00;;
68989;SDS011;56046;47.270;11.368;2022-08-19T02:08:11;6.30;;;3.10;;
68989;SDS011;56046;47.270;11.368;2022-08-19T02:10:40;6.18;;;2.95;;
68989;SDS011;56046;47.270;11.368;2022-08-19T02:13:06;7.22;;;3.20;;
68989;SDS011;56046;47.270;11.368;2022-08-19T02:15:31;4.40;;;2.97;;
68989;SDS011;56046;47.270;11.368;2022-08-19T02:17:57;5.63;;;3.20;;
68989;SDS011;56046;47.270;11.368;2022-08-19T02:20:22;6.90;;;3.27;;
68989;SDS011;56046;47.270;11.368;2022-08-19T02:22:47;6.13;;;3.20;;
68989;SDS011;56046;47.270;11.368;2022-08-19T02:25:13;5.53;;;3.10;;
68989;SDS011;56046;47.270;11.368;2022-08-19T02:27:38;5.72;;;3.70;;
68989;SDS011;56046;47.270;11.368;2022-08-19T02:30:05;7.65;;;3.25;;
68989;SDS011;56046;47.270;11.368;2022-08-19T02:32:31;6.78;;;3.30;;
68989;SDS011;56046;47.270;11.368;2022-08-19T02:34:57;6.57;;;3.20;;
68989;SDS011;56046;47.270;11.368;2022-08-19T02:37:22;6.50;;;3.17;;
68989;SDS011;56046;47.270;11.368;2022-08-19T02:40:06;8.23;;;3.55;;
68989;SDS011;56046;47.270;11.368;2022-08-19T02:42:32;5.67;;;3.37;;
68989;SDS011;56046;47.270;11.368;2022-08-19T02:44:57;5.97;;;3.53;;
68989;SDS011;56046;47.270;11.368;2022-08-19T02:47:22;6.40;;;3.07;;
68989;SDS011;56046;47.270;11.368;2022-08-19T02:49:47;7.83;;;4.23;;
68989;SDS011;56046;47.270;11.368;2022-08-19T02:52:15;9.43;;;3.67;;
68989;SDS011;56046;47.270;11.368;2022-08-19T02:54:40;6.67;;;3.70;;
68989;SDS011;56046;47.270;11.368;2022-08-19T02:57:05;7.33;;;3.57;;
68989;SDS011;56046;47.270;11.368;2022-08-19T02:59:31;7.80;;;3.50;;
68989;SDS011;56046;47.270;11.368;2022-08-19T03:01:57;7.32;;;3.50;;
68989;SDS011;56046;47.270;11.368;2022-08-19T03:04:22;6.33;;;3.60;;
68989;SDS011;56046;47.270;11.368;2022-08-19T03:06:49;7.88;;;3.83;;
68989;SDS011;56046;47.270;11.368;2022-08-19T03:09:15;8.07;;;3.70;;
68989;SDS011;56046;47.270;11.368;2022-08-19T03:11:40;7.68;;;4.20;;
68989;SDS011;56046;47.270;11.368;2022-08-19T03:14:06;6.77;;;3.40;;
68989;SDS011;56046;47.270;11.368;2022-08-19T03:16:32;7.07;;;3.80;;
68989;SDS011;56046;47.270;11.368;2022-08-19T03:18:58;5.85;;;3.40;;
68989;SDS011;56046;47.270;11.368;2022-08-19T03:21:27;8.60;;;3.83;;
68989;SDS011;56046;47.270;11.368;2022-08-19T03:23:56;6.20;;;3.40;;
68989;SDS011;56046;47.270;11.368;2022-08-19T03:26:21;6.28;;;3.75;;
68989;SDS011;56046;47.270;11.368;2022-08-19T03:28:46;6.57;;;3.57;;
68989;SDS011;56046;47.270;11.368;2022-08-19T03:31:15;8.60;;;3.75;;
68989;SDS011;56046;47.270;11.368;2022-08-19T03:33:40;6.20;;;3.90;;
68989;SDS011;56046;47.270;11.368;2022-08-19T03:38:32;6.22;;;3.80;;
68989;SDS011;56046;47.270;11.368;2022-08-19T03:41:01;6.93;;;3.33;;
68989;SDS011;56046;47.270;11.368;2022-08-19T03:43:27;8.38;;;3.35;;
68989;SDS011;56046;47.270;11.368;2022-08-19T03:45:59;7.23;;;3.07;;
68989;SDS011;56046;47.270;11.368;2022-08-19T03:48:25;5.47;;;2.70;;
68989;SDS011;56046;47.270;11.368;2022-08-19T03:50:50;6.37;;;2.83;;
68989;SDS011;56046;47.270;11.368;2022-08-19T03:53:15;6.03;;;3.30;;
68989;SDS011;56046;47.270;11.368;2022-08-19T03:55:40;6.33;;;3.10;;
68989;SDS011;56046;47.270;11.368;2022-08-19T03:58:06;8.55;;;3.40;;
68989;SDS011;56046;47.270;11.368;2022-08-19T04:00:31;5.60;;;2.77;;
68989;SDS011;56046;47.270;11.368;2022-08-19T04:02:57;5.67;;;3.00;;
68989;SDS011;56046;47.270;11.368;2022-08-19T04:05:22;6.67;;;3.50;;
68989;SDS011;56046;47.270;11.368;2022-08-19T04:07:48;5.70;;;3.00;;
68989;SDS011;56046;47.270;11.368;2022-08-19T04:10:13;6.37;;;3.07;;
68989;SDS011;56046;47.270;11.368;2022-08-19T04:12:38;5.50;;;3.07;;
68989;SDS011;56046;47.270;11.368;2022-08-19T04:15:04;5.05;;;2.92;;
68989;SDS011;56046;47.270;11.368;2022-08-19T04:17:31;5.97;;;3.50;;
68989;SDS011;56046;47.270;11.368;2022-08-19T04:19:56;6.27;;;3.30;;
68989;SDS011;56046;47.270;11.368;2022-08-19T04:22:21;5.27;;;2.80;;
68989;SDS011;56046;47.270;11.368;2022-08-19T04:24:47;6.40;;;2.83;;
68989;SDS011;56046;47.270;11.368;2022-08-19T04:27:12;4.97;;;2.80;;
68989;SDS011;56046;47.270;11.368;2022-08-19T04:29:37;5.28;;;2.38;;
68989;SDS011;56046;47.270;11.368;2022-08-19T04:32:04;8.47;;;3.00;;
68989;SDS011;56046;47.270;11.368;2022-08-19T04:34:30;7.80;;;3.25;;
68989;SDS011;56046;47.270;11.368;2022-08-19T04:36:57;7.40;;;3.67;;
68989;SDS011;56046;47.270;11.368;2022-08-19T04:39:24;7.25;;;3.22;;
68989;SDS011;56046;47.270;11.368;2022-08-19T04:42:12;6.65;;;3.40;;
68989;SDS011;56046;47.270;11.368;2022-08-19T04:44:57;5.88;;;3.08;;
68989;SDS011;56046;47.270;11.368;2022-08-19T04:47:23;6.07;;;2.90;;
68989;SDS011;56046;47.270;11.368;2022-08-19T04:49:48;6.13;;;3.40;;
68989;SDS011;56046;47.270;11.368;2022-08-19T04:52:13;6.30;;;3.23;;
68989;SDS011;56046;47.270;11.368;2022-08-19T04:54:39;7.67;;;3.40;;
68989;SDS011;56046;47.270;11.368;2022-08-19T04:57:05;8.30;;;3.27;;
68989;SDS011;56046;47.270;11.368;2022-08-19T04:59:31;8.23;;;3.28;;
68989;SDS011;56046;47.270;11.368;2022-08-19T05:01:58;7.18;;;3.55;;
68989;SDS011;56046;47.270;11.368;2022-08-19T05:04:23;5.50;;;3.23;;
68989;SDS011;56046;47.270;11.368;2022-08-19T05:06:49;6.90;;;3.30;;
68989;SDS011;56046;47.270;11.368;2022-08-19T05:09:15;6.57;;;3.28;;
68989;SDS011;56046;47.270;11.368;2022-08-19T05:11:41;6.37;;;3.30;;
68989;SDS011;56046;47.270;11.368;2022-08-19T05:14:07;5.60;;;3.00;;
68989;SDS011;56046;47.270;11.368;2022-08-19T05:16:32;5.82;;;3.22;;
68989;SDS011;56046;47.270;11.368;2022-08-19T05:18:57;5.57;;;3.37;;
68989;SDS011;56046;47.270;11.368;2022-08-19T05:21:41;6.78;;;3.17;;
68989;SDS011;56046;47.270;11.368;2022-08-19T05:24:25;6.25;;;3.75;;
68989;SDS011;56046;47.270;11.368;2022-08-19T05:26:51;11.00;;;4.53;;
68989;SDS011;56046;47.270;11.368;2022-08-19T05:29:18;8.15;;;4.20;;
68989;SDS011;56046;47.270;11.368;2022-08-19T05:31:44;6.07;;;3.75;;
68989;SDS011;56046;47.270;11.368;2022-08-19T05:34:09;6.17;;;3.50;;
68989;SDS011;56046;47.270;11.368;2022-08-19T05:36:36;7.23;;;3.70;;
68989;SDS011;56046;47.270;11.368;2022-08-19T05:39:04;8.55;;;3.50;;
68989;SDS011;56046;47.270;11.368;2022-08-19T05:41:29;7.53;;;3.30;;
68989;SDS011;56046;47.270;11.368;2022-08-19T05:44:00;6.38;;;3.42;;
68989;SDS011;56046;47.270;11.368;2022-08-19T05:46:26;7.20;;;3.72;;
68989;SDS011;56046;47.270;11.368;2022-08-19T05:48:51;8.50;;;3.97;;
68989;SDS011;56046;47.270;11.368;2022-08-19T05:51:16;7.60;;;4.43;;
68989;SDS011;56046;47.270;11.368;2022-08-19T05:53:42;8.00;;;4.77;;
68989;SDS011;56046;47.270;11.368;2022-08-19T05:56:10;6.93;;;4.15;;
68989;SDS011;56046;47.270;11.368;2022-08-19T05:58:36;5.83;;;3.53;;
68989;SDS011;56046;47.270;11.368;2022-08-19T06:01:01;10.05;;;3.78;;
68989;SDS011;56046;47.270;11.368;2022-08-19T06:03:33;6.82;;;3.75;;
68989;SDS011;56046;47.270;11.368;2022-08-19T06:05:59;7.45;;;3.25;;
68989;SDS011;56046;47.270;11.368;2022-08-19T06:08:27;8.90;;;3.73;;
68989;SDS011;56046;47.270;11.368;2022-08-19T06:10:53;7.50;;;3.80;;
68989;SDS011;56046;47.270;11.368;2022-08-19T06:13:18;6.47;;;3.57;;
68989;SDS011;56046;47.270;11.368;2022-08-19T06:15:44;8.73;;;3.63;;
68989;SDS011;56046;47.270;11.368;2022-08-19T06:18:11;6.05;;;3.50;;
68989;SDS011;56046;47.270;11.368;2022-08-19T06:20:37;7.97;;;4.00;;
68989;SDS011;56046;47.270;11.368;2022-08-19T06:23:02;7.50;;;4.00;;
68989;SDS011;56046;47.270;11.368;2022-08-19T06:25:27;7.93;;;3.87;;
68989;SDS011;56046;47.270;11.368;2022-08-19T06:27:52;7.37;;;3.90;;
68989;SDS011;56046;47.270;11.368;2022-08-19T06:30:18;6.35;;;4.13;;
68989;SDS011;56046;47.270;11.368;2022-08-19T06:32:43;7.77;;;4.50;;
68989;SDS011;56046;47.270;11.368;2022-08-19T06:35:09;10.00;;;3.90;;
68989;SDS011;56046;47.270;11.368;2022-08-19T06:37:34;9.07;;;3.60;;
68989;SDS011;56046;47.270;11.368;2022-08-19T06:40:01;8.63;;;4.20;;
68989;SDS011;56046;47.270;11.368;2022-08-19T06:42:26;6.40;;;3.63;;
68989;SDS011;56046;47.270;11.368;2022-08-19T06:44:51;6.87;;;4.13;;
68989;SDS011;56046;47.270;11.368;2022-08-19T06:47:18;7.77;;;4.10;;
68989;SDS011;56046;47.270;11.368;2022-08-19T06:49:44;6.35;;;4.20;;
68989;SDS011;56046;47.270;11.368;2022-08-19T06:52:09;6.93;;;3.93;;
68989;SDS011;56046;47.270;11.368;2022-08-19T06:54:38;7.78;;;4.20;;
68989;SDS011;56046;47.270;11.368;2022-08-19T06:57:04;8.80;;;3.88;;
68989;SDS011;56046;47.270;11.368;2022-08-19T06:59:30;7.35;;;4.05;;
68989;SDS011;56046;47.270;11.368;2022-08-19T07:01:57;7.70;;;4.03;;
68989;SDS011;56046;47.270;11.368;2022-08-19T07:04:24;7.67;;;4.30;;
68989;SDS011;56046;47.270;11.368;2022-08-19T07:06:56;7.15;;;4.00;;
68989;SDS011;56046;47.270;11.368;2022-08-19T07:09:21;6.63;;;4.15;;
68989;SDS011;56046;47.270;11.368;2022-08-19T07:11:49;6.70;;;4.13;;
68989;SDS011;56046;47.270;11.368;2022-08-19T07:14:15;6.13;;;3.65;;
68989;SDS011;56046;47.270;11.368;2022-08-19T07:16:42;6.95;;;3.88;;
68989;SDS011;56046;47.270;11.368;2022-08-19T07:19:08;6.60;;;3.73;;
68989;SDS011;56046;47.270;11.368;2022-08-19T07:21:33;6.20;;;3.50;;
68989;SDS011;56046;47.270;11.368;2022-08-19T07:24:00;5.43;;;3.58;;
68989;SDS011;56046;47.270;11.368;2022-08-19T07:26:27;5.17;;;3.30;;
68989;SDS011;56046;47.270;11.368;2022-08-19T07:28:53;6.32;;;3.45;;
68989;SDS011;56046;47.270;11.368;2022-08-19T07:31:20;10.23;;;3.47;;
68989;SDS011;56046;47.270;11.368;2022-08-19T07:33:46;6.45;;;3.42;;
68989;SDS011;56046;47.270;11.368;2022-08-19T07:36:12;6.20;;;3.30;;
68989;SDS011;56046;47.270;11.368;2022-08-19T07:38:38;6.70;;;4.13;;
68989;SDS011;56046;47.270;11.368;2022-08-19T07:41:04;7.10;;;4.18;;
68989;SDS011;56046;47.270;11.368;2022-08-19T07:43:30;7.53;;;4.17;;
68989;SDS011;56046;47.270;11.368;2022-08-19T07:45:55;7.73;;;4.27;;
68989;SDS011;56046;47.270;11.368;2022-08-19T07:48:24;6.70;;;4.43;;
68989;SDS011;56046;47.270;11.368;2022-08-19T07:50:58;7.57;;;4.10;;
68989;SDS011;56046;47.270;11.368;2022-08-19T07:53:27;9.02;;;4.13;;
68989;SDS011;56046;47.270;11.368;2022-08-19T07:55:53;8.10;;;3.88;;
68989;SDS011;56046;47.270;11.368;2022-08-19T07:58:19;5.03;;;3.17;;
68989;SDS011;56046;47.270;11.368;2022-08-19T08:00:46;6.87;;;3.70;;
68989;SDS011;56046;47.270;11.368;2022-08-19T08:03:12;6.20;;;4.03;;
68989;SDS011;56046;47.270;11.368;2022-08-19T08:05:37;5.47;;;3.67;;
68989;SDS011;56046;47.270;11.368;2022-08-19T08:08:22;7.53;;;3.63;;
68989;SDS011;56046;47.270;11.368;2022-08-19T08:11:06;6.28;;;3.83;;
68989;SDS011;56046;47.270;11.368;2022-08-19T08:13:31;8.63;;;4.07;;
68989;SDS011;56046;47.270;11.368;2022-08-19T08:15:57;6.30;;;3.28;;
68989;SDS011;56046;47.270;11.368;2022-08-19T08:18:23;4.70;;;3.13;;
68989;SDS011;56046;47.270;11.368;2022-08-19T08:20:48;8.17;;;3.50;;
68989;SDS011;56046;47.270;11.368;2022-08-19T08:23:14;8.67;;;3.37;;
68989;SDS011;56046;47.270;11.368;2022-08-19T08:25:49;7.33;;;3.30;;
68989;SDS011;56046;47.270;11.368;2022-08-19T08:28:18;5.73;;;4.00;;
68989;SDS011;56046;47.270;11.368;2022-08-19T08:30:44;6.05;;;3.35;;
68989;SDS011;56046;47.270;11.368;2022-08-19T08:33:10;8.50;;;3.55;;
68989;SDS011;56046;47.270;11.368;2022-08-19T08:35:36;7.63;;;4.03;;
68989;SDS011;56046;47.270;11.368;2022-08-19T08:38:01;6.87;;;3.97;;
68989;SDS011;56046;47.270;11.368;2022-08-19T08:45:32;6.30;;;3.90;;
68989;SDS011;56046;47.270;11.368;2022-08-19T08:48:00;5.47;;;2.88;;
68989;SDS011;56046;47.270;11.368;2022-08-19T08:50:29;6.43;;;3.20;;
68989;SDS011;56046;47.270;11.368;2022-08-19T08:53:00;5.40;;;2.85;;
68989;SDS011;56046;47.270;11.368;2022-08-19T08:55:27;7.07;;;3.33;;
68989;SDS011;56046;47.270;11.368;2022-08-19T08:58:04;5.60;;;3.10;;
68989;SDS011;56046;47.270;11.368;2022-08-19T09:00:32;5.65;;;3.05;;
68989;SDS011;56046;47.270;11.368;2022-08-19T09:02:58;5.45;;;3.45;;
68989;SDS011;56046;47.270;11.368;2022-08-19T09:05:26;4.70;;;3.40;;
68989;SDS011;56046;47.270;11.368;2022-08-19T09:08:00;4.73;;;2.90;;
68989;SDS011;56046;47.270;11.368;2022-08-19T09:13:17;6.10;;;3.53;;
68989;SDS011;56046;47.270;11.368;2022-08-19T09:15:57;5.00;;;3.25;;
68989;SDS011;56046;47.270;11.368;2022-08-19T09:18:23;6.35;;;3.20;;
68989;SDS011;56046;47.270;11.368;2022-08-19T09:20:48;7.73;;;3.50;;
68989;SDS011;56046;47.270;11.368;2022-08-19T09:23:14;6.13;;;3.40;;
68989;SDS011;56046;47.270;11.368;2022-08-19T09:25:39;5.63;;;3.47;;
68989;SDS011;56046;47.270;11.368;2022-08-19T09:28:05;4.83;;;3.10;;
68989;SDS011;56046;47.270;11.368;2022-08-19T09:30:33;6.03;;;3.55;;
68989;SDS011;56046;47.270;11.368;2022-08-19T09:32:59;5.25;;;3.33;;
68989;SDS011;56046;47.270;11.368;2022-08-19T09:35:25;4.93;;;3.27;;
68989;SDS011;56046;47.270;11.368;2022-08-19T09:37:52;5.13;;;3.00;;
68989;SDS011;56046;47.270;11.368;2022-08-19T09:40:17;5.55;;;3.55;;
68989;SDS011;56046;47.270;11.368;2022-08-19T09:42:46;8.27;;;3.77;;
68989;SDS011;56046;47.270;11.368;2022-08-19T09:45:13;5.43;;;3.15;;
68989;SDS011;56046;47.270;11.368;2022-08-19T09:47:38;5.07;;;2.95;;
68989;SDS011;56046;47.270;11.368;2022-08-19T09:50:07;5.07;;;2.80;;
68989;SDS011;56046;47.270;11.368;2022-08-19T09:52:33;5.07;;;2.70;;
68989;SDS011;56046;47.270;11.368;2022-08-19T09:54:59;5.07;;;3.17;;
68989;SDS011;56046;47.270;11.368;2022-08-19T09:57:25;6.67;;;3.10;;
68989;SDS011;56046;47.270;11.368;2022-08-19T09:59:50;5.13;;;3.20;;
68989;SDS011;56046;47.270;11.368;2022-08-19T10:02:15;4.93;;;3.33;;
68989;SDS011;56046;47.270;11.368;2022-08-19T10:04:40;5.83;;;3.20;;
68989;SDS011;56046;47.270;11.368;2022-08-19T10:07:24;3.83;;;2.90;;
68989;SDS011;56046;47.270;11.368;2022-08-19T10:09:49;4.27;;;2.23;;
68989;SDS011;56046;47.270;11.368;2022-08-19T10:12:14;4.33;;;2.67;;
68989;SDS011;56046;47.270;11.368;2022-08-19T10:14:40;5.47;;;2.97;;
68989;SDS011;56046;47.270;11.368;2022-08-19T10:17:05;5.38;;;3.42;;
68989;SDS011;56046;47.270;11.368;2022-08-19T10:19:31;4.00;;;2.93;;
68989;SDS011;56046;47.270;11.368;2022-08-19T10:22:02;5.18;;;3.15;;
68989;SDS011;56046;47.270;11.368;2022-08-19T10:24:27;5.77;;;3.67;;
68989;SDS011;56046;47.270;11.368;2022-08-19T10:26:53;6.10;;;2.83;;
68989;SDS011;56046;47.270;11.368;2022-08-19T10:29:18;4.37;;;2.70;;
68989;SDS011;56046;47.270;11.368;2022-08-19T10:31:43;5.60;;;3.70;;
68989;SDS011;56046;47.270;11.368;2022-08-19T10:34:09;4.30;;;2.72;;
68989;SDS011;56046;47.270;11.368;2022-08-19T10:36:35;4.93;;;3.07;;
68989;SDS011;56046;47.270;11.368;2022-08-19T10:39:04;5.63;;;3.65;;
68989;SDS011;56046;47.270;11.368;2022-08-19T10:41:34;4.73;;;3.23;;
68989;SDS011;56046;47.270;11.368;2022-08-19T10:44:07;5.22;;;3.85;;
68989;SDS011;56046;47.270;11.368;2022-08-19T10:46:34;5.30;;;4.00;;
68989;SDS011;56046;47.270;11.368;2022-08-19T10:49:01;6.70;;;3.88;;
68989;SDS011;56046;47.270;11.368;2022-08-19T10:51:27;5.35;;;3.88;;
68989;SDS011;56046;47.270;11.368;2022-08-19T10:54:11;4.60;;;3.40;;
68989;SDS011;56046;47.270;11.368;2022-08-19T10:56:36;6.17;;;3.43;;
68989;SDS011;56046;47.270;11.368;2022-08-19T10:59:18;4.65;;;3.88;;
68989;SDS011;56046;47.270;11.368;2022-08-19T11:01:44;4.63;;;3.10;;
68989;SDS011;56046;47.270;11.368;2022-08-19T11:04:09;4.75;;;3.20;;
68989;SDS011;56046;47.270;11.368;2022-08-19T11:06:36;4.47;;;3.38;;
68989;SDS011;56046;47.270;11.368;2022-08-19T11:09:03;4.97;;;3.20;;
68989;SDS011;56046;47.270;11.368;2022-08-19T11:11:29;4.60;;;3.30;;
68989;SDS011;56046;47.270;11.368;2022-08-19T11:13:55;4.73;;;3.20;;
68989;SDS011;56046;47.270;11.368;2022-08-19T11:16:21;3.73;;;3.00;;
68989;SDS011;56046;47.270;11.368;2022-08-19T11:18:49;3.53;;;3.08;;
68989;SDS011;56046;47.270;11.368;2022-08-19T11:21:24;2.45;;;2.00;;
68989;SDS011;56046;47.270;11.368;2022-08-19T11:23:50;4.05;;;2.35;;
68989;SDS011;56046;47.270;11.368;2022-08-19T11:26:16;2.87;;;2.07;;
68989;SDS011;56046;47.270;11.368;2022-08-19T11:28:42;3.63;;;2.47;;
68989;SDS011;56046;47.270;11.368;2022-08-19T11:31:16;3.33;;;2.63;;
68989;SDS011;56046;47.270;11.368;2022-08-19T11:33:41;2.95;;;2.40;;
68989;SDS011;56046;47.270;11.368;2022-08-19T11:36:07;3.13;;;2.40;;
68989;SDS011;56046;47.270;11.368;2022-08-19T11:38:33;5.07;;;2.28;;
68989;SDS011;56046;47.270;11.368;2022-08-19T11:41:00;3.40;;;2.47;;
68989;SDS011;56046;47.270;11.368;2022-08-19T11:43:25;3.67;;;1.80;;
68989;SDS011;56046;47.270;11.368;2022-08-19T11:45:52;2.67;;;2.03;;
68989;SDS011;56046;47.270;11.368;2022-08-19T11:48:17;2.17;;;1.70;;
68989;SDS011;56046;47.270;11.368;2022-08-19T11:50:46;1.93;;;1.73;;
68989;SDS011;56046;47.270;11.368;2022-08-19T11:53:12;3.30;;;1.90;;
68989;SDS011;56046;47.270;11.368;2022-08-19T11:55:37;2.43;;;1.93;;
68989;SDS011;56046;47.270;11.368;2022-08-19T11:58:04;2.88;;;1.73;;
68989;SDS011;56046;47.270;11.368;2022-08-19T12:00:31;2.60;;;1.87;;
68989;SDS011;56046;47.270;11.368;2022-08-19T12:02:56;2.67;;;1.45;;
68989;SDS011;56046;47.270;11.368;2022-08-19T12:05:21;2.83;;;1.80;;
68989;SDS011;56046;47.270;11.368;2022-08-19T12:07:47;3.17;;;2.00;;
68989;SDS011;56046;47.270;11.368;2022-08-19T12:10:12;2.47;;;1.60;;
68989;SDS011;56046;47.270;11.368;2022-08-19T12:12:37;2.77;;;2.10;;
68989;SDS011;56046;47.270;11.368;2022-08-19T12:15:07;2.75;;;1.58;;
68989;SDS011;56046;47.270;11.368;2022-08-19T12:17:33;2.50;;;2.05;;
68989;SDS011;56046;47.270;11.368;2022-08-19T12:19:58;2.40;;;2.20;;
68989;SDS011;56046;47.270;11.368;2022-08-19T12:22:23;2.53;;;2.07;;
68989;SDS011;56046;47.270;11.368;2022-08-19T12:24:49;4.47;;;1.90;;
68989;SDS011;56046;47.270;11.368;2022-08-19T12:27:15;2.92;;;1.98;;
68989;SDS011;56046;47.270;11.368;2022-08-19T12:29:41;1.97;;;1.37;;
68989;SDS011;56046;47.270;11.368;2022-08-19T12:32:06;1.97;;;1.00;;
68989;SDS011;56046;47.270;11.368;2022-08-19T12:34:33;1.55;;;1.10;;
68989;SDS011;56046;47.270;11.368;2022-08-19T12:37:00;2.47;;;1.53;;
68989;SDS011;56046;47.270;11.368;2022-08-19T12:39:26;1.65;;;1.10;;
68989;SDS011;56046;47.270;11.368;2022-08-19T12:41:52;3.00;;;1.63;;
68989;SDS011;56046;47.270;11.368;2022-08-19T12:44:18;1.95;;;1.75;;
68989;SDS011;56046;47.270;11.368;2022-08-19T12:46:43;1.67;;;1.40;;
68989;SDS011;56046;47.270;11.368;2022-08-19T12:49:08;2.10;;;1.92;;
68989;SDS011;56046;47.270;11.368;2022-08-19T12:51:35;2.20;;;1.60;;
68989;SDS011;56046;47.270;11.368;2022-08-19T12:54:00;4.10;;;1.77;;
68989;SDS011;56046;47.270;11.368;2022-08-19T12:56:26;1.40;;;1.02;;
68989;SDS011;56046;47.270;11.368;2022-08-19T12:58:52;3.03;;;1.50;;
68989;SDS011;56046;47.270;11.368;2022-08-19T13:01:17;2.40;;;2.10;;
68989;SDS011;56046;47.270;11.368;2022-08-19T13:03:44;3.57;;;1.57;;
68989;SDS011;56046;47.270;11.368;2022-08-19T13:06:10;2.00;;;1.67;;
68989;SDS011;56046;47.270;11.368;2022-08-19T13:08:35;1.77;;;0.90;;
68989;SDS011;56046;47.270;11.368;2022-08-19T13:11:11;2.20;;;1.08;;
68989;SDS011;56046;47.270;11.368;2022-08-19T13:13:38;1.90;;;0.83;;
68989;SDS011;56046;47.270;11.368;2022-08-19T13:16:05;2.40;;;1.13;;
68989;SDS011;56046;47.270;11.368;2022-08-19T13:18:31;2.53;;;1.85;;
68989;SDS011;56046;47.270;11.368;2022-08-19T13:20:56;1.70;;;1.03;;
68989;SDS011;56046;47.270;11.368;2022-08-19T13:23:22;2.60;;;1.40;;
68989;SDS011;56046;47.270;11.368;2022-08-19T13:25:57;1.80;;;0.90;;
68989;SDS011;56046;47.270;11.368;2022-08-19T13:28:22;2.05;;;1.67;;
68989;SDS011;56046;47.270;11.368;2022-08-19T13:30:48;2.47;;;1.50;;
68989;SDS011;56046;47.270;11.368;2022-08-19T13:33:31;2.70;;;1.63;;
68989;SDS011;56046;47.270;11.368;2022-08-19T13:35:58;3.83;;;2.17;;
68989;SDS011;56046;47.270;11.368;2022-08-19T13:38:25;3.22;;;1.75;;
68989;SDS011;56046;47.270;11.368;2022-08-19T13:40:51;4.13;;;1.77;;
68989;SDS011;56046;47.270;11.368;2022-08-19T13:43:18;5.68;;;2.13;;
68989;SDS011;56046;47.270;11.368;2022-08-19T13:45:44;5.50;;;1.83;;
68989;SDS011;56046;47.270;11.368;2022-08-19T13:48:09;4.63;;;1.93;;
68989;SDS011;56046;47.270;11.368;2022-08-19T13:50:38;4.70;;;1.67;;
68989;SDS011;56046;47.270;11.368;2022-08-19T13:53:06;2.95;;;1.70;;
68989;SDS011;56046;47.270;11.368;2022-08-19T13:55:31;1.83;;;1.50;;
68989;SDS011;56046;47.270;11.368;2022-08-19T13:57:58;2.93;;;1.50;;
68989;SDS011;56046;47.270;11.368;2022-08-19T14:00:24;4.38;;;1.70;;
68989;SDS011;56046;47.270;11.368;2022-08-19T14:02:51;2.03;;;1.25;;
68989;SDS011;56046;47.270;11.368;2022-08-19T14:05:17;2.72;;;1.73;;
68989;SDS011;56046;47.270;11.368;2022-08-19T14:07:42;2.97;;;1.77;;
68989;SDS011;56046;47.270;11.368;2022-08-19T14:10:09;2.43;;;1.33;;
68989;SDS011;56046;47.270;11.368;2022-08-19T14:12:35;2.50;;;1.40;;
68989;SDS011;56046;47.270;11.368;2022-08-19T14:15:00;3.05;;;1.70;;
68989;SDS011;56046;47.270;11.368;2022-08-19T14:17:25;3.37;;;1.63;;
68989;SDS011;56046;47.270;11.368;2022-08-19T14:19:58;3.63;;;1.43;;
68989;SDS011;56046;47.270;11.368;2022-08-19T14:22:24;2.40;;;1.80;;
68989;SDS011;56046;47.270;11.368;2022-08-19T14:24:49;2.83;;;1.73;;
68989;SDS011;56046;47.270;11.368;2022-08-19T14:27:15;2.88;;;1.60;;
68989;SDS011;56046;47.270;11.368;2022-08-19T14:29:40;3.90;;;2.30;;
68989;SDS011;56046;47.270;11.368;2022-08-19T14:32:05;4.07;;;2.10;;
68989;SDS011;56046;47.270;11.368;2022-08-19T14:34:30;2.97;;;2.00;;
68989;SDS011;56046;47.270;11.368;2022-08-19T14:36:56;3.00;;;1.70;;
68989;SDS011;56046;47.270;11.368;2022-08-19T14:39:21;3.20;;;1.27;;
68989;SDS011;56046;47.270;11.368;2022-08-19T14:41:47;3.75;;;1.75;;